TimeCDT,TemperatureF,Dew PointF,Humidity,Sea Level PressureIn,VisibilityMPH,Wind Direction,Wind SpeedMPH,Gust SpeedMPH,PrecipitationIn,Events,Conditions,WindDirDegrees,DateUTC
12:53 AM,46.9,26.1,44,29.85,10.0,ENE,10.4,-,N/A,,Clear,70,2013-04-12 05:53:00
1:53 AM,46.9,26.1,44,29.87,10.0,ENE,10.4,-,N/A,,Overcast,70,2013-04-12 06:53:00
2:53 AM,45.0,26.1,48,29.86,10.0,ENE,8.1,-,N/A,,Overcast,60,2013-04-12 07:53:00
3:53 AM,44.1,26.1,49,29.86,10.0,NE,9.2,-,N/A,,Overcast,50,2013-04-12 08:53:00
4:53 AM,46.9,26.1,44,29.83,10.0,NE,11.5,-,N/A,,Overcast,50,2013-04-12 09:53:00
5:53 AM,45.0,26.1,48,29.85,10.0,NE,11.5,-,N/A,,Mostly Cloudy,50,2013-04-12 10:53:00
6:53 AM,43.0,25.0,49,29.87,10.0,NE,8.1,-,N/A,,Mostly Cloudy,40,2013-04-12 11:53:00
7:53 AM,42.1,25.0,51,29.91,10.0,NNE,5.8,-,N/A,,Mostly Cloudy,30,2013-04-12 12:53:00
8:53 AM,48.0,25.0,41,29.94,10.0,NE,9.2,-,N/A,,Partly Cloudy,50,2013-04-12 13:53:00
9:53 AM,54.0,28.9,38,29.94,10.0,East,8.1,-,N/A,,Clear,100,2013-04-12 14:53:00
10:53 AM,57.0,28.0,33,29.94,10.0,ESE,9.2,-,N/A,,Scattered Clouds,110,2013-04-12 15:53:00
11:53 AM,61.0,25.0,25,29.92,10.0,SE,16.1,24.2,N/A,,Scattered Clouds,130,2013-04-12 16:53:00
12:53 PM,63.0,27.0,26,29.90,10.0,SE,12.7,23.0,N/A,,Partly Cloudy,140,2013-04-12 17:53:00
1:53 PM,64.9,26.1,23,29.86,10.0,SSE,16.1,27.6,N/A,,Clear,160,2013-04-12 18:53:00
2:53 PM,66.9,27.0,22,29.85,10.0,SE,16.1,23.0,N/A,,Clear,140,2013-04-12 19:53:00
3:53 PM,69.1,28.0,22,29.82,10.0,South,17.3,24.2,N/A,,Clear,170,2013-04-12 20:53:00
4:53 PM,68.0,28.0,22,29.78,10.0,SE,13.8,21.9,N/A,,Clear,130,2013-04-12 21:53:00
5:53 PM,66.9,28.0,23,29.78,10.0,SE,17.3,-,N/A,,Clear,130,2013-04-12 22:53:00
6:53 PM,64.9,28.9,26,29.78,10.0,ESE,20.7,-,N/A,,Clear,110,2013-04-12 23:53:00
7:53 PM,61.0,30.0,31,29.79,10.0,ESE,19.6,-,N/A,,Clear,110,2013-04-13 00:53:00
8:53 PM,55.9,30.9,39,29.81,10.0,ESE,12.7,-,N/A,,Clear,120,2013-04-13 01:53:00
9:53 PM,53.1,33.1,47,29.82,10.0,SE,17.3,-,N/A,,Clear,130,2013-04-13 02:53:00
10:53 PM,51.1,36.0,56,29.86,10.0,ESE,11.5,-,N/A,,Clear,120,2013-04-13 03:53:00
11:53 PM,51.1,37.9,61,29.84,10.0,SE,19.6,27.6,N/A,,Clear,140,2013-04-13 04:53:00